sensor_id;sensor_type;location;lat;lon;timestamp;P1;durP1;ratioP1;P2;durP2;ratioP2
20896;SDS011;10608;42.600;23.398;2023-09-30T00:02:04;26.50;;;24.70;;
20896;SDS011;10608;42.600;23.398;2023-09-30T00:04:30;25.60;;;23.87;;
20896;SDS011;10608;42.600;23.398;2023-09-30T00:06:55;18.17;;;16.27;;
20896;SDS011;10608;42.600;23.398;2023-09-30T00:09:21;17.10;;;15.50;;
20896;SDS011;10608;42.600;23.398;2023-09-30T00:11:46;17.17;;;15.90;;
20896;SDS011;10608;42.600;23.398;2023-09-30T00:14:12;20.53;;;19.23;;
20896;SDS011;10608;42.600;23.398;2023-09-30T00:16:38;21.20;;;19.70;;
20896;SDS011;10608;42.600;23.398;2023-09-30T00:19:03;20.23;;;18.93;;
20896;SDS011;10608;42.600;23.398;2023-09-30T00:21:29;16.80;;;15.50;;
20896;SDS011;10608;42.600;23.398;2023-09-30T00:23:55;17.00;;;15.80;;
20896;SDS011;10608;42.600;23.398;2023-09-30T00:26:20;19.83;;;18.20;;
20896;SDS011;10608;42.600;23.398;2023-09-30T00:28:47;23.27;;;21.67;;
20896;SDS011;10608;42.600;23.398;2023-09-30T00:31:12;21.67;;;20.07;;
20896;SDS011;10608;42.600;23.398;2023-09-30T00:33:37;20.23;;;18.87;;
20896;SDS011;10608;42.600;23.398;2023-09-30T00:36:07;21.53;;;20.13;;
20896;SDS011;10608;42.600;23.398;2023-09-30T00:38:33;22.03;;;20.43;;
20896;SDS011;10608;42.600;23.398;2023-09-30T00:40:59;22.70;;;21.10;;
20896;SDS011;10608;42.600;23.398;2023-09-30T00:43:25;20.30;;;18.90;;
20896;SDS011;10608;42.600;23.398;2023-09-30T00:48:54;20.93;;;19.50;;
20896;SDS011;10608;42.600;23.398;2023-09-30T00:51:22;20.67;;;19.47;;
20896;SDS011;10608;42.600;23.398;2023-09-30T00:53:49;22.07;;;20.67;;
20896;SDS011;10608;42.600;23.398;2023-09-30T00:56:15;21.70;;;20.37;;
20896;SDS011;10608;42.600;23.398;2023-09-30T00:58:43;20.03;;;18.67;;
20896;SDS011;10608;42.600;23.398;2023-09-30T01:01:12;21.40;;;19.90;;
20896;SDS011;10608;42.600;23.398;2023-09-30T01:03:38;23.27;;;21.03;;
20896;SDS011;10608;42.600;23.398;2023-09-30T01:06:03;25.93;;;24.27;;
20896;SDS011;10608;42.600;23.398;2023-09-30T01:08:29;22.53;;;20.93;;
20896;SDS011;10608;42.600;23.398;2023-09-30T01:10:55;22.43;;;21.03;;
20896;SDS011;10608;42.600;23.398;2023-09-30T01:13:21;20.90;;;19.63;;
20896;SDS011;10608;42.600;23.398;2023-09-30T01:15:47;21.67;;;20.23;;
20896;SDS011;10608;42.600;23.398;2023-09-30T01:18:12;25.17;;;23.40;;
20896;SDS011;10608;42.600;23.398;2023-09-30T01:20:38;27.63;;;25.77;;
20896;SDS011;10608;42.600;23.398;2023-09-30T01:23:03;30.07;;;28.43;;
20896;SDS011;10608;42.600;23.398;2023-09-30T01:25:29;34.60;;;32.33;;
20896;SDS011;10608;42.600;23.398;2023-09-30T01:27:55;36.53;;;33.53;;
20896;SDS011;10608;42.600;23.398;2023-09-30T01:30:20;26.93;;;25.23;;
20896;SDS011;10608;42.600;23.398;2023-09-30T01:32:48;23.20;;;21.83;;
20896;SDS011;10608;42.600;23.398;2023-09-30T01:35:13;24.43;;;22.73;;
20896;SDS011;10608;42.600;23.398;2023-09-30T01:37:39;25.70;;;24.10;;
20896;SDS011;10608;42.600;23.398;2023-09-30T01:40:05;32.00;;;29.43;;
20896;SDS011;10608;42.600;23.398;2023-09-30T01:42:33;31.77;;;29.57;;
20896;SDS011;10608;42.600;23.398;2023-09-30T01:44:58;30.73;;;28.63;;
20896;SDS011;10608;42.600;23.398;2023-09-30T01:47:24;32.03;;;30.23;;
20896;SDS011;10608;42.600;23.398;2023-09-30T01:49:49;36.33;;;34.33;;
20896;SDS011;10608;42.600;23.398;2023-09-30T01:52:14;32.10;;;30.27;;
20896;SDS011;10608;42.600;23.398;2023-09-30T01:54:40;31.87;;;30.07;;
20896;SDS011;10608;42.600;23.398;2023-09-30T01:57:05;34.87;;;32.93;;
20896;SDS011;10608;42.600;23.398;2023-09-30T01:59:31;29.83;;;28.23;;
20896;SDS011;10608;42.600;23.398;2023-09-30T02:01:56;29.83;;;28.03;;
20896;SDS011;10608;42.600;23.398;2023-09-30T02:04:22;29.63;;;27.93;;
20896;SDS011;10608;42.600;23.398;2023-09-30T02:06:48;26.93;;;25.43;;
20896;SDS011;10608;42.600;23.398;2023-09-30T02:09:13;26.20;;;24.47;;
20896;SDS011;10608;42.600;23.398;2023-09-30T02:11:39;25.60;;;24.00;;
20896;SDS011;10608;42.600;23.398;2023-09-30T02:14:06;26.83;;;25.23;;
20896;SDS011;10608;42.600;23.398;2023-09-30T02:16:31;26.37;;;24.90;;
20896;SDS011;10608;42.600;23.398;2023-09-30T02:18:57;29.10;;;27.03;;
20896;SDS011;10608;42.600;23.398;2023-09-30T02:21:23;29.93;;;27.73;;
20896;SDS011;10608;42.600;23.398;2023-09-30T02:23:49;28.23;;;26.47;;
20896;SDS011;10608;42.600;23.398;2023-09-30T02:26:15;26.63;;;24.83;;
20896;SDS011;10608;42.600;23.398;2023-09-30T02:28:40;26.07;;;24.57;;
20896;SDS011;10608;42.600;23.398;2023-09-30T02:31:06;26.63;;;25.03;;
20896;SDS011;10608;42.600;23.398;2023-09-30T02:33:32;28.63;;;26.83;;
20896;SDS011;10608;42.600;23.398;2023-09-30T02:36:00;26.17;;;24.57;;
20896;SDS011;10608;42.600;23.398;2023-09-30T02:38:26;26.10;;;24.57;;
20896;SDS011;10608;42.600;23.398;2023-09-30T02:40:51;27.53;;;25.97;;
20896;SDS011;10608;42.600;23.398;2023-09-30T02:43:19;30.60;;;28.80;;
20896;SDS011;10608;42.600;23.398;2023-09-30T02:45:45;29.80;;;27.77;;
20896;SDS011;10608;42.600;23.398;2023-09-30T02:48:11;30.40;;;28.60;;
20896;SDS011;10608;42.600;23.398;2023-09-30T02:50:36;34.27;;;31.63;;
20896;SDS011;10608;42.600;23.398;2023-09-30T02:53:02;29.10;;;27.30;;
20896;SDS011;10608;42.600;23.398;2023-09-30T02:55:27;27.37;;;25.63;;
20896;SDS011;10608;42.600;23.398;2023-09-30T02:57:53;24.57;;;23.00;;
20896;SDS011;10608;42.600;23.398;2023-09-30T03:00:18;23.33;;;21.73;;
20896;SDS011;10608;42.600;23.398;2023-09-30T03:02:51;24.10;;;22.40;;
20896;SDS011;10608;42.600;23.398;2023-09-30T03:05:18;26.57;;;24.93;;
20896;SDS011;10608;42.600;23.398;2023-09-30T03:07:44;30.93;;;28.27;;
20896;SDS011;10608;42.600;23.398;2023-09-30T03:10:10;28.07;;;26.30;;
20896;SDS011;10608;42.600;23.398;2023-09-30T03:12:37;27.97;;;26.03;;
20896;SDS011;10608;42.600;23.398;2023-09-30T03:15:03;27.47;;;25.73;;
20896;SDS011;10608;42.600;23.398;2023-09-30T03:17:30;28.57;;;26.83;;
20896;SDS011;10608;42.600;23.398;2023-09-30T03:19:57;28.40;;;26.20;;
20896;SDS011;10608;42.600;23.398;2023-09-30T03:22:26;30.20;;;28.03;;
20896;SDS011;10608;42.600;23.398;2023-09-30T03:24:52;27.57;;;25.63;;
20896;SDS011;10608;42.600;23.398;2023-09-30T03:27:19;25.50;;;23.83;;
20896;SDS011;10608;42.600;23.398;2023-09-30T03:29:45;23.53;;;22.00;;
20896;SDS011;10608;42.600;23.398;2023-09-30T03:32:11;22.90;;;21.20;;
20896;SDS011;10608;42.600;23.398;2023-09-30T03:34:36;22.60;;;21.10;;
20896;SDS011;10608;42.600;23.398;2023-09-30T03:37:02;23.27;;;21.37;;
20896;SDS011;10608;42.600;23.398;2023-09-30T03:39:28;23.43;;;21.90;;
20896;SDS011;10608;42.600;23.398;2023-09-30T03:41:54;23.27;;;21.87;;
20896;SDS011;10608;42.600;23.398;2023-09-30T03:44:21;26.43;;;24.80;;
20896;SDS011;10608;42.600;23.398;2023-09-30T03:46:48;32.27;;;30.37;;
20896;SDS011;10608;42.600;23.398;2023-09-30T03:49:15;31.97;;;29.73;;
20896;SDS011;10608;42.600;23.398;2023-09-30T03:51:41;31.17;;;29.57;;
20896;SDS011;10608;42.600;23.398;2023-09-30T03:54:06;29.87;;;28.00;;
20896;SDS011;10608;42.600;23.398;2023-09-30T03:56:31;28.93;;;27.27;;
20896;SDS011;10608;42.600;23.398;2023-09-30T03:58:57;28.53;;;26.83;;
20896;SDS011;10608;42.600;23.398;2023-09-30T04:01:23;28.33;;;26.63;;
20896;SDS011;10608;42.600;23.398;2023-09-30T04:03:50;28.17;;;26.17;;
20896;SDS011;10608;42.600;23.398;2023-09-30T04:06:19;26.20;;;24.73;;
20896;SDS011;10608;42.600;23.398;2023-09-30T04:08:44;27.33;;;25.13;;
20896;SDS011;10608;42.600;23.398;2023-09-30T04:11:10;24.53;;;22.63;;
20896;SDS011;10608;42.600;23.398;2023-09-30T04:13:39;26.37;;;23.90;;
20896;SDS011;10608;42.600;23.398;2023-09-30T04:16:05;27.10;;;25.50;;
20896;SDS011;10608;42.600;23.398;2023-09-30T04:18:30;26.00;;;24.13;;
20896;SDS011;10608;42.600;23.398;2023-09-30T04:20:56;25.37;;;23.87;;
20896;SDS011;10608;42.600;23.398;2023-09-30T04:23:22;28.93;;;26.67;;
20896;SDS011;10608;42.600;23.398;2023-09-30T04:25:47;27.57;;;25.97;;
20896;SDS011;10608;42.600;23.398;2023-09-30T04:28:13;24.23;;;22.23;;
20896;SDS011;10608;42.600;23.398;2023-09-30T04:30:39;22.20;;;20.87;;
20896;SDS011;10608;42.600;23.398;2023-09-30T04:33:05;23.90;;;22.20;;
20896;SDS011;10608;42.600;23.398;2023-09-30T04:35:30;23.63;;;22.23;;
20896;SDS011;10608;42.600;23.398;2023-09-30T04:37:56;25.77;;;24.20;;
20896;SDS011;10608;42.600;23.398;2023-09-30T04:40:26;25.50;;;23.77;;
20896;SDS011;10608;42.600;23.398;2023-09-30T04:42:51;25.77;;;24.03;;
20896;SDS011;10608;42.600;23.398;2023-09-30T04:45:19;25.07;;;23.47;;
20896;SDS011;10608;42.600;23.398;2023-09-30T04:47:49;24.47;;;22.87;;
20896;SDS011;10608;42.600;23.398;2023-09-30T04:50:15;23.80;;;21.77;;
20896;SDS011;10608;42.600;23.398;2023-09-30T04:52:41;31.97;;;28.87;;
20896;SDS011;10608;42.600;23.398;2023-09-30T04:55:07;25.13;;;23.53;;
20896;SDS011;10608;42.600;23.398;2023-09-30T04:57:33;36.17;;;32.77;;
20896;SDS011;10608;42.600;23.398;2023-09-30T04:59:59;62.47;;;57.00;;
20896;SDS011;10608;42.600;23.398;2023-09-30T05:02:25;37.80;;;33.80;;
20896;SDS011;10608;42.600;23.398;2023-09-30T05:04:51;29.10;;;27.40;;
20896;SDS011;10608;42.600;23.398;2023-09-30T05:07:17;22.13;;;20.63;;
20896;SDS011;10608;42.600;23.398;2023-09-30T05:09:43;25.63;;;23.93;;
20896;SDS011;10608;42.600;23.398;2023-09-30T05:12:09;35.43;;;28.27;;
20896;SDS011;10608;42.600;23.398;2023-09-30T05:14:36;25.73;;;23.93;;
20896;SDS011;10608;42.600;23.398;2023-09-30T05:17:03;27.10;;;25.60;;
20896;SDS011;10608;42.600;23.398;2023-09-30T05:19:30;24.83;;;23.43;;
20896;SDS011;10608;42.600;23.398;2023-09-30T05:21:57;20.33;;;19.03;;
20896;SDS011;10608;42.600;23.398;2023-09-30T05:24:22;22.63;;;21.20;;
20896;SDS011;10608;42.600;23.398;2023-09-30T05:26:48;26.73;;;24.57;;
20896;SDS011;10608;42.600;23.398;2023-09-30T05:29:13;23.23;;;21.93;;
20896;SDS011;10608;42.600;23.398;2023-09-30T05:31:39;18.13;;;16.77;;
20896;SDS011;10608;42.600;23.398;2023-09-30T05:34:04;16.17;;;14.93;;
20896;SDS011;10608;42.600;23.398;2023-09-30T05:36:29;17.17;;;15.83;;
20896;SDS011;10608;42.600;23.398;2023-09-30T05:38:55;14.30;;;13.00;;
20896;SDS011;10608;42.600;23.398;2023-09-30T05:41:20;15.20;;;14.00;;
20896;SDS011;10608;42.600;23.398;2023-09-30T05:43:46;15.67;;;14.57;;
20896;SDS011;10608;42.600;23.398;2023-09-30T05:46:12;14.73;;;13.63;;
20896;SDS011;10608;42.600;23.398;2023-09-30T05:48:38;15.03;;;12.93;;
20896;SDS011;10608;42.600;23.398;2023-09-30T05:51:04;15.23;;;13.80;;
20896;SDS011;10608;42.600;23.398;2023-09-30T05:53:31;15.97;;;14.37;;
20896;SDS011;10608;42.600;23.398;2023-09-30T05:55:57;11.77;;;10.70;;
20896;SDS011;10608;42.600;23.398;2023-09-30T05:58:24;13.30;;;12.20;;
20896;SDS011;10608;42.600;23.398;2023-09-30T06:00:51;21.40;;;12.63;;
20896;SDS011;10608;42.600;23.398;2023-09-30T06:03:17;12.70;;;11.90;;
20896;SDS011;10608;42.600;23.398;2023-09-30T06:05:42;13.33;;;12.37;;
20896;SDS011;10608;42.600;23.398;2023-09-30T06:08:08;12.93;;;12.13;;
20896;SDS011;10608;42.600;23.398;2023-09-30T06:10:39;18.40;;;16.70;;
20896;SDS011;10608;42.600;23.398;2023-09-30T06:13:07;20.50;;;13.00;;
20896;SDS011;10608;42.600;23.398;2023-09-30T06:15:34;13.97;;;12.03;;
20896;SDS011;10608;42.600;23.398;2023-09-30T06:18:02;18.40;;;13.00;;
20896;SDS011;10608;42.600;23.398;2023-09-30T06:20:29;14.67;;;13.03;;
20896;SDS011;10608;42.600;23.398;2023-09-30T06:22:55;15.40;;;13.37;;
20896;SDS011;10608;42.600;23.398;2023-09-30T06:25:21;16.77;;;15.20;;
20896;SDS011;10608;42.600;23.398;2023-09-30T06:27:49;13.17;;;11.83;;
20896;SDS011;10608;42.600;23.398;2023-09-30T06:30:15;12.23;;;11.23;;
20896;SDS011;10608;42.600;23.398;2023-09-30T06:32:42;13.70;;;12.37;;
20896;SDS011;10608;42.600;23.398;2023-09-30T06:35:08;12.73;;;11.83;;
20896;SDS011;10608;42.600;23.398;2023-09-30T06:37:37;14.50;;;13.30;;
20896;SDS011;10608;42.600;23.398;2023-09-30T06:40:07;15.47;;;14.30;;
20896;SDS011;10608;42.600;23.398;2023-09-30T06:42:36;13.57;;;12.20;;
20896;SDS011;10608;42.600;23.398;2023-09-30T06:45:02;11.67;;;10.87;;
20896;SDS011;10608;42.600;23.398;2023-09-30T06:47:34;14.90;;;10.80;;
20896;SDS011;10608;42.600;23.398;2023-09-30T06:50:01;11.23;;;10.43;;
20896;SDS011;10608;42.600;23.398;2023-09-30T06:52:38;12.07;;;11.10;;
20896;SDS011;10608;42.600;23.398;2023-09-30T06:55:05;12.90;;;11.70;;
20896;SDS011;10608;42.600;23.398;2023-09-30T06:57:32;12.23;;;11.00;;
20896;SDS011;10608;42.600;23.398;2023-09-30T06:59:58;11.23;;;10.50;;
20896;SDS011;10608;42.600;23.398;2023-09-30T07:02:23;12.20;;;11.43;;
20896;SDS011;10608;42.600;23.398;2023-09-30T07:04:49;18.63;;;12.57;;
20896;SDS011;10608;42.600;23.398;2023-09-30T07:07:14;11.70;;;10.57;;
20896;SDS011;10608;42.600;23.398;2023-09-30T07:09:40;12.10;;;10.93;;
20896;SDS011;10608;42.600;23.398;2023-09-30T07:12:05;12.73;;;11.07;;
20896;SDS011;10608;42.600;23.398;2023-09-30T07:14:31;14.17;;;10.47;;
20896;SDS011;10608;42.600;23.398;2023-09-30T07:16:56;13.77;;;11.10;;
20896;SDS011;10608;42.600;23.398;2023-09-30T07:19:22;11.43;;;10.03;;
20896;SDS011;10608;42.600;23.398;2023-09-30T07:21:48;12.18;;;11.05;;
20896;SDS011;10608;42.600;23.398;2023-09-30T07:24:13;19.20;;;11.02;;
20896;SDS011;10608;42.600;23.398;2023-09-30T07:26:39;12.97;;;10.03;;
20896;SDS011;10608;42.600;23.398;2023-09-30T07:29:05;16.77;;;10.40;;
20896;SDS011;10608;42.600;23.398;2023-09-30T07:31:34;13.55;;;9.45;;
20896;SDS011;10608;42.600;23.398;2023-09-30T07:34:01;13.97;;;9.93;;
20896;SDS011;10608;42.600;23.398;2023-09-30T07:36:26;12.90;;;11.73;;
20896;SDS011;10608;42.600;23.398;2023-09-30T07:38:52;14.40;;;12.10;;
20896;SDS011;10608;42.600;23.398;2023-09-30T07:41:18;13.57;;;11.97;;
20896;SDS011;10608;42.600;23.398;2023-09-30T07:43:43;11.83;;;10.63;;
20896;SDS011;10608;42.600;23.398;2023-09-30T07:46:09;12.17;;;11.07;;
20896;SDS011;10608;42.600;23.398;2023-09-30T07:48:34;12.77;;;11.30;;
20896;SDS011;10608;42.600;23.398;2023-09-30T07:51:00;13.60;;;12.27;;
20896;SDS011;10608;42.600;23.398;2023-09-30T07:53:26;14.17;;;13.07;;
20896;SDS011;10608;42.600;23.398;2023-09-30T07:55:51;13.63;;;12.43;;
20896;SDS011;10608;42.600;23.398;2023-09-30T07:58:19;13.20;;;11.47;;
20896;SDS011;10608;42.600;23.398;2023-09-30T08:00:44;20.20;;;11.40;;
20896;SDS011;10608;42.600;23.398;2023-09-30T08:03:10;12.00;;;10.97;;
20896;SDS011;10608;42.600;23.398;2023-09-30T08:05:36;13.20;;;11.87;;
20896;SDS011;10608;42.600;23.398;2023-09-30T08:08:02;18.23;;;11.70;;
20896;SDS011;10608;42.600;23.398;2023-09-30T08:10:28;14.60;;;11.70;;
20896;SDS011;10608;42.600;23.398;2023-09-30T08:12:56;12.20;;;10.73;;
20896;SDS011;10608;42.600;23.398;2023-09-30T08:15:23;11.50;;;10.37;;
20896;SDS011;10608;42.600;23.398;2023-09-30T08:17:49;12.43;;;11.33;;
20896;SDS011;10608;42.600;23.398;2023-09-30T08:20:15;14.30;;;12.80;;
20896;SDS011;10608;42.600;23.398;2023-09-30T08:22:40;13.73;;;12.13;;
20896;SDS011;10608;42.600;23.398;2023-09-30T08:25:06;15.07;;;12.20;;
20896;SDS011;10608;42.600;23.398;2023-09-30T08:27:32;12.97;;;11.70;;
20896;SDS011;10608;42.600;23.398;2023-09-30T08:29:57;14.27;;;13.07;;
20896;SDS011;10608;42.600;23.398;2023-09-30T08:32:23;16.23;;;12.70;;
20896;SDS011;10608;42.600;23.398;2023-09-30T08:34:48;13.80;;;12.40;;
20896;SDS011;10608;42.600;23.398;2023-09-30T08:37:14;16.80;;;15.30;;
20896;SDS011;10608;42.600;23.398;2023-09-30T08:39:39;14.93;;;12.93;;
20896;SDS011;10608;42.600;23.398;2023-09-30T08:42:07;14.73;;;13.50;;
20896;SDS011;10608;42.600;23.398;2023-09-30T08:44:36;16.37;;;14.97;;
20896;SDS011;10608;42.600;23.398;2023-09-30T08:47:05;15.27;;;13.97;;
20896;SDS011;10608;42.600;23.398;2023-09-30T08:49:39;14.07;;;12.87;;
20896;SDS011;10608;42.600;23.398;2023-09-30T08:52:06;14.80;;;13.60;;
20896;SDS011;10608;42.600;23.398;2023-09-30T08:54:34;16.77;;;13.70;;
20896;SDS011;10608;42.600;23.398;2023-09-30T08:57:00;14.27;;;12.90;;
20896;SDS011;10608;42.600;23.398;2023-09-30T08:59:25;13.83;;;12.67;;
20896;SDS011;10608;42.600;23.398;2023-09-30T09:01:52;15.07;;;13.57;;
20896;SDS011;10608;42.600;23.398;2023-09-30T09:04:18;12.77;;;11.77;;
20896;SDS011;10608;42.600;23.398;2023-09-30T09:06:43;14.17;;;12.90;;
20896;SDS011;10608;42.600;23.398;2023-09-30T09:09:15;13.10;;;11.47;;
20896;SDS011;10608;42.600;23.398;2023-09-30T09:11:47;16.77;;;11.87;;
20896;SDS011;10608;42.600;23.398;2023-09-30T09:14:12;12.53;;;11.10;;
20896;SDS011;10608;42.600;23.398;2023-09-30T09:16:50;13.27;;;12.00;;
20896;SDS011;10608;42.600;23.398;2023-09-30T09:19:17;12.87;;;11.70;;
20896;SDS011;10608;42.600;23.398;2023-09-30T09:21:56;12.23;;;11.13;;
20896;SDS011;10608;42.600;23.398;2023-09-30T09:24:43;12.93;;;11.63;;
20896;SDS011;10608;42.600;23.398;2023-09-30T09:27:12;12.93;;;11.77;;
20896;SDS011;10608;42.600;23.398;2023-09-30T09:29:42;12.53;;;11.40;;
20896;SDS011;10608;42.600;23.398;2023-09-30T09:34:42;12.20;;;11.07;;
20896;SDS011;10608;42.600;23.398;2023-09-30T09:37:19;12.03;;;10.90;;
20896;SDS011;10608;42.600;23.398;2023-09-30T09:39:55;12.27;;;11.07;;
20896;SDS011;10608;42.600;23.398;2023-09-30T09:44:55;12.47;;;11.57;;
20896;SDS011;10608;42.600;23.398;2023-09-30T09:47:33;12.67;;;11.37;;
20896;SDS011;10608;42.600;23.398;2023-09-30T09:49:59;12.70;;;11.40;;
20896;SDS011;10608;42.600;23.398;2023-09-30T09:52:27;19.83;;;12.00;;
20896;SDS011;10608;42.600;23.398;2023-09-30T09:54:53;12.13;;;10.93;;
20896;SDS011;10608;42.600;23.398;2023-09-30T09:57:20;12.27;;;9.77;;
20896;SDS011;10608;42.600;23.398;2023-09-30T09:59:45;14.73;;;11.63;;
20896;SDS011;10608;42.600;23.398;2023-09-30T10:02:16;12.73;;;11.47;;
20896;SDS011;10608;42.600;23.398;2023-09-30T10:04:43;10.77;;;10.07;;
20896;SDS011;10608;42.600;23.398;2023-09-30T10:07:15;13.80;;;12.40;;
20896;SDS011;10608;42.600;23.398;2023-09-30T10:09:50;13.33;;;11.83;;
20896;SDS011;10608;42.600;23.398;2023-09-30T10:12:18;11.37;;;10.43;;
20896;SDS011;10608;42.600;23.398;2023-09-30T10:14:44;18.07;;;16.73;;
20896;SDS011;10608;42.600;23.398;2023-09-30T10:17:09;12.07;;;11.17;;
20896;SDS011;10608;42.600;23.398;2023-09-30T10:19:35;12.77;;;11.63;;
20896;SDS011;10608;42.600;23.398;2023-09-30T10:24:45;13.47;;;12.30;;
20896;SDS011;10608;42.600;23.398;2023-09-30T10:35:19;11.70;;;10.73;;
20896;SDS011;10608;42.600;23.398;2023-09-30T10:37:46;12.83;;;11.73;;
20896;SDS011;10608;42.600;23.398;2023-09-30T10:40:28;11.90;;;10.97;;
20896;SDS011;10608;42.600;23.398;2023-09-30T10:42:55;11.70;;;10.57;;
20896;SDS011;10608;42.600;23.398;2023-09-30T10:50:53;13.70;;;12.33;;
20896;SDS011;10608;42.600;23.398;2023-09-30T10:53:25;13.23;;;12.03;;
20896;SDS011;10608;42.600;23.398;2023-09-30T10:55:59;13.57;;;10.37;;
20896;SDS011;10608;42.600;23.398;2023-09-30T11:01:18;9.77;;;9.07;;
20896;SDS011;10608;42.600;23.398;2023-09-30T11:03:45;10.10;;;9.27;;
20896;SDS011;10608;42.600;23.398;2023-09-30T11:06:15;10.50;;;9.70;;
20896;SDS011;10608;42.600;23.398;2023-09-30T11:08:55;12.00;;;10.77;;
20896;SDS011;10608;42.600;23.398;2023-09-30T11:11:38;10.73;;;9.93;;
20896;SDS011;10608;42.600;23.398;2023-09-30T11:16:53;10.73;;;9.50;;
20896;SDS011;10608;42.600;23.398;2023-09-30T11:19:20;10.27;;;9.47;;
20896;SDS011;10608;42.600;23.398;2023-09-30T11:21:47;11.80;;;10.10;;
20896;SDS011;10608;42.600;23.398;2023-09-30T11:24:14;10.53;;;9.83;;
20896;SDS011;10608;42.600;23.398;2023-09-30T11:26:40;11.83;;;10.70;;
20896;SDS011;10608;42.600;23.398;2023-09-30T11:29:09;10.97;;;10.00;;
20896;SDS011;10608;42.600;23.398;2023-09-30T11:31:38;11.53;;;10.63;;
20896;SDS011;10608;42.600;23.398;2023-09-30T11:34:13;10.17;;;9.43;;
20896;SDS011;10608;42.600;23.398;2023-09-30T11:36:41;12.10;;;9.33;;
20896;SDS011;10608;42.600;23.398;2023-09-30T11:41:52;13.97;;;12.87;;
20896;SDS011;10608;42.600;23.398;2023-09-30T11:44:20;13.70;;;12.40;;
20896;SDS011;10608;42.600;23.398;2023-09-30T11:46:50;12.27;;;11.47;;
20896;SDS011;10608;42.600;23.398;2023-09-30T11:49:27;10.70;;;9.63;;
20896;SDS011;10608;42.600;23.398;2023-09-30T11:51:56;9.20;;;8.57;;
20896;SDS011;10608;42.600;23.398;2023-09-30T11:54:30;11.63;;;10.40;;
20896;SDS011;10608;42.600;23.398;2023-09-30T11:56:58;11.37;;;10.13;;
20896;SDS011;10608;42.600;23.398;2023-09-30T11:59:27;9.90;;;9.03;;
20896;SDS011;10608;42.600;23.398;2023-09-30T12:01:52;10.77;;;9.70;;
20896;SDS011;10608;42.600;23.398;2023-09-30T12:04:18;10.67;;;9.97;;
20896;SDS011;10608;42.600;23.398;2023-09-30T12:06:44;12.70;;;10.03;;
20896;SDS011;10608;42.600;23.398;2023-09-30T12:09:12;10.27;;;9.47;;
20896;SDS011;10608;42.600;23.398;2023-09-30T12:11:40;10.73;;;10.13;;
20896;SDS011;10608;42.600;23.398;2023-09-30T12:14:10;11.33;;;10.33;;
20896;SDS011;10608;42.600;23.398;2023-09-30T12:16:38;10.53;;;9.63;;
20896;SDS011;10608;42.600;23.398;2023-09-30T12:19:04;11.17;;;10.03;;
20896;SDS011;10608;42.600;23.398;2023-09-30T12:21:31;11.30;;;10.27;;
20896;SDS011;10608;42.600;23.398;2023-09-30T12:23:56;11.03;;;10.23;;
20896;SDS011;10608;42.600;23.398;2023-09-30T12:26:22;11.90;;;10.73;;
20896;SDS011;10608;42.600;23.398;2023-09-30T12:28:48;16.10;;;9.03;;
20896;SDS011;10608;42.600;23.398;2023-09-30T12:31:13;11.10;;;10.30;;
20896;SDS011;10608;42.600;23.398;2023-09-30T12:33:39;11.17;;;10.13;;
20896;SDS011;10608;42.600;23.398;2023-09-30T12:36:05;11.40;;;10.40;;
20896;SDS011;10608;42.600;23.398;2023-09-30T12:38:31;11.43;;;10.63;;
20896;SDS011;10608;42.600;23.398;2023-09-30T12:40:56;12.23;;;11.10;;
20896;SDS011;10608;42.600;23.398;2023-09-30T12:43:22;11.60;;;10.50;;
20896;SDS011;10608;42.600;23.398;2023-09-30T12:45:48;10.80;;;9.93;;
20896;SDS011;10608;42.600;23.398;2023-09-30T12:48:13;11.90;;;10.80;;
20896;SDS011;10608;42.600;23.398;2023-09-30T12:50:39;10.83;;;10.13;;
20896;SDS011;10608;42.600;23.398;2023-09-30T12:53:06;12.50;;;11.43;;
20896;SDS011;10608;42.600;23.398;2023-09-30T12:55:32;11.10;;;9.90;;
20896;SDS011;10608;42.600;23.398;2023-09-30T12:57:57;10.93;;;10.13;;
20896;SDS011;10608;42.600;23.398;2023-09-30T13:00:23;11.33;;;10.53;;
20896;SDS011;10608;42.600;23.398;2023-09-30T13:02:50;11.40;;;10.37;;
20896;SDS011;10608;42.600;23.398;2023-09-30T13:05:15;12.57;;;10.50;;
20896;SDS011;10608;42.600;23.398;2023-09-30T13:07:42;12.77;;;9.97;;
20896;SDS011;10608;42.600;23.398;2023-09-30T13:10:07;11.50;;;10.70;;
20896;SDS011;10608;42.600;23.398;2023-09-30T13:12:33;10.67;;;9.83;;
20896;SDS011;10608;42.600;23.398;2023-09-30T13:14:59;11.73;;;10.73;;
20896;SDS011;10608;42.600;23.398;2023-09-30T13:17:25;12.27;;;11.37;;
20896;SDS011;10608;42.600;23.398;2023-09-30T13:19:51;12.53;;;11.40;;
20896;SDS011;10608;42.600;23.398;2023-09-30T13:22:17;12.27;;;11.07;;
20896;SDS011;10608;42.600;23.398;2023-09-30T13:24:43;11.40;;;10.50;;
20896;SDS011;10608;42.600;23.398;2023-09-30T13:27:08;11.27;;;10.40;;
20896;SDS011;10608;42.600;23.398;2023-09-30T13:29:34;12.30;;;11.50;;
20896;SDS011;10608;42.600;23.398;2023-09-30T13:32:00;12.93;;;12.00;;
20896;SDS011;10608;42.600;23.398;2023-09-30T13:34:26;13.40;;;12.47;;
20896;SDS011;10608;42.600;23.398;2023-09-30T13:36:51;14.40;;;11.93;;
20896;SDS011;10608;42.600;23.398;2023-09-30T13:39:16;14.27;;;12.63;;
20896;SDS011;10608;42.600;23.398;2023-09-30T13:41:43;13.57;;;12.57;;
20896;SDS011;10608;42.600;23.398;2023-09-30T13:44:08;13.17;;;12.17;;
20896;SDS011;10608;42.600;23.398;2023-09-30T13:46:35;12.93;;;11.97;;
20896;SDS011;10608;42.600;23.398;2023-09-30T13:49:01;13.80;;;12.80;;
20896;SDS011;10608;42.600;23.398;2023-09-30T13:51:26;13.97;;;12.77;;
20896;SDS011;10608;42.600;23.398;2023-09-30T13:53:52;12.67;;;11.57;;
20896;SDS011;10608;42.600;23.398;2023-09-30T13:56:18;12.90;;;11.70;;
20896;SDS011;10608;42.600;23.398;2023-09-30T13:58:44;14.50;;;13.40;;
20896;SDS011;10608;42.600;23.398;2023-09-30T14:01:09;15.67;;;12.70;;
20896;SDS011;10608;42.600;23.398;2023-09-30T14:03:36;14.93;;;12.70;;
20896;SDS011;10608;42.600;23.398;2023-09-30T14:06:01;12.33;;;11.43;;
20896;SDS011;10608;42.600;23.398;2023-09-30T14:08:27;13.20;;;12.17;;
20896;SDS011;10608;42.600;23.398;2023-09-30T14:10:53;12.07;;;11.03;;
20896;SDS011;10608;42.600;23.398;2023-09-30T14:13:18;13.27;;;11.90;;
20896;SDS011;10608;42.600;23.398;2023-09-30T14:15:44;13.10;;;11.90;;
20896;SDS011;10608;42.600;23.398;2023-09-30T14:18:11;13.43;;;12.43;;
20896;SDS011;10608;42.600;23.398;2023-09-30T14:20:37;14.40;;;13.10;;
20896;SDS011;10608;42.600;23.398;2023-09-30T14:23:02;13.77;;;12.57;;
20896;SDS011;10608;42.600;23.398;2023-09-30T14:25:28;12.73;;;11.73;;
20896;SDS011;10608;42.600;23.398;2023-09-30T14:27:54;12.17;;;11.13;;
20896;SDS011;10608;42.600;23.398;2023-09-30T14:30:19;11.07;;;10.23;;
20896;SDS011;10608;42.600;23.398;2023-09-30T14:32:46;12.27;;;11.13;;
20896;SDS011;10608;42.600;23.398;2023-09-30T14:35:11;12.57;;;11.50;;
20896;SDS011;10608;42.600;23.398;2023-09-30T14:37:37;12.87;;;11.90;;
20896;SDS011;10608;42.600;23.398;2023-09-30T14:40:02;12.43;;;11.63;;
20896;SDS011;10608;42.600;23.398;2023-09-30T14:42:30;13.20;;;12.30;;